createdAt,value
2022-12-26T00:01:21.661Z,95578.16
2022-12-26T00:04:49.027Z,95584.25
2022-12-26T00:07:45.889Z,95587.38
2022-12-26T00:10:47.715Z,95602.19
2022-12-26T00:13:55.411Z,95602.56
2022-12-26T00:16:57.262Z,95600.72
2022-12-26T00:20:01.379Z,95603.72
2022-12-26T00:23:03.271Z,95606.47
2022-12-26T00:26:06.916Z,95609.16
2022-12-26T00:29:10.161Z,95618.34
2022-12-26T00:32:12.021Z,95631.53
2022-12-26T00:35:13.836Z,95624.19
2022-12-26T00:38:15.707Z,95623.56
2022-12-26T00:41:20.234Z,95622.44
2022-12-26T00:44:23.483Z,95635.22
2022-12-26T00:47:25.347Z,95624.47
2022-12-26T00:50:34.209Z,95622.03
2022-12-26T00:53:36.685Z,95625.44
2022-12-26T00:56:38.532Z,95624.06
2022-12-26T00:59:41.728Z,95626.50
2022-12-26T01:02:43.712Z,95633.06
2022-12-26T01:05:47.848Z,95634.13
2022-12-26T01:08:49.805Z,95634.53
2022-12-26T01:11:51.690Z,95635.66
2022-12-26T01:14:59.856Z,95644.44
2022-12-26T01:18:01.696Z,95639.47
2022-12-26T01:21:06.305Z,95633.53
2022-12-26T01:24:09.214Z,95640.03
2022-12-26T01:27:11.199Z,95646.13
2022-12-26T01:30:16.980Z,95638.75
2022-12-26T01:33:18.834Z,95643.72
2022-12-26T01:36:20.692Z,95641.81
2022-12-26T01:39:23.137Z,95643.78
2022-12-26T01:42:26.573Z,95645.66
2022-12-26T01:45:31.837Z,95639.50
2022-12-26T01:48:35.815Z,95640.34
2022-12-26T01:51:44.657Z,95644.56
2022-12-26T01:54:50.723Z,95642.59
2022-12-26T01:57:58.038Z,95643.25
2022-12-26T02:01:02.684Z,95644.38
2022-12-26T02:04:07.569Z,95647.31
2022-12-26T02:07:10.037Z,95641.00
2022-12-26T02:10:17.639Z,95644.75
2022-12-26T02:13:20.042Z,95646.47
2022-12-26T02:16:23.350Z,95648.22
2022-12-26T02:19:37.252Z,95640.91
2022-12-26T02:23:18.064Z,95639.22
2022-12-26T02:26:47.428Z,95634.88
2022-12-26T02:30:36.676Z,95639.63
2022-12-26T02:33:56.497Z,95631.53
2022-12-26T02:37:06.800Z,95628.94
2022-12-26T02:40:34.043Z,95623.09
2022-12-26T02:43:41.564Z,95634.94
2022-12-26T02:46:50.174Z,95627.47
2022-12-26T02:50:04.260Z,95625.38
2022-12-26T02:53:12.996Z,95618.59
2022-12-26T02:56:22.727Z,95614.94
2022-12-26T02:59:54.544Z,95617.53
2022-12-26T03:02:55.410Z,95624.03
2022-12-26T03:06:03.772Z,95627.38
2022-12-26T03:09:11.155Z,95623.44
2022-12-26T03:12:33.549Z,95633.09
2022-12-26T03:15:39.504Z,95625.63
2022-12-26T03:18:59.964Z,95629.84
2022-12-26T03:22:05.526Z,95620.88
2022-12-26T03:25:11.357Z,95613.25
2022-12-26T03:28:14.063Z,95634.22
2022-12-26T03:31:17.169Z,95628.38
2022-12-26T03:34:19.192Z,95629.28
2022-12-26T03:37:49.623Z,95629.16
2022-12-26T03:41:02.498Z,95620.88
2022-12-26T03:44:13.746Z,95618.38
2022-12-26T03:47:23.643Z,95619.16
2022-12-26T03:50:32.914Z,95615.44
2022-12-26T03:53:37.947Z,95623.94
2022-12-26T03:56:46.053Z,95609.53
2022-12-26T03:59:54.240Z,95613.47
2022-12-26T04:03:00.654Z,95613.91
2022-12-26T04:06:05.835Z,95609.63
2022-12-26T04:09:15.113Z,95606.03
2022-12-26T04:12:20.480Z,95610.28
2022-12-26T04:15:28.399Z,95606.88
2022-12-26T04:18:37.931Z,95607.16
2022-12-26T04:21:44.303Z,95608.28
2022-12-26T04:24:54.388Z,95619.41
2022-12-26T04:27:56.325Z,95613.25
2022-12-26T04:31:08.936Z,95610.06
2022-12-26T04:34:19.310Z,95614.72
2022-12-26T04:37:25.140Z,95617.41
2022-12-26T04:40:34.116Z,95620.53
2022-12-26T04:43:49.125Z,95614.22
2022-12-26T04:46:56.178Z,95619.66
2022-12-26T04:49:58.148Z,95618.94
2022-12-26T04:53:00.718Z,95624.22
2022-12-26T04:56:04.718Z,95625.94
2022-12-26T04:59:06.623Z,95623.00
2022-12-26T05:02:09.301Z,95621.66
2022-12-26T05:05:11.272Z,95616.81
2022-12-26T05:08:22.659Z,95620.94
2022-12-26T05:11:28.553Z,95611.00
2022-12-26T05:14:30.430Z,95609.00
2022-12-26T05:17:33.766Z,95604.75
2022-12-26T05:20:35.598Z,95612.88
2022-12-26T05:23:38.159Z,95612.03
2022-12-26T05:26:41.430Z,95611.16
2022-12-26T05:29:43.437Z,95616.50
2022-12-26T05:32:45.277Z,95622.28
2022-12-26T05:35:47.127Z,95627.72
2022-12-26T05:38:49.072Z,95635.25
2022-12-26T05:41:52.377Z,95622.28
2022-12-26T05:44:54.272Z,95628.63
2022-12-26T05:47:58.487Z,95643.69
2022-12-26T05:51:00.463Z,95633.41
2022-12-26T05:54:02.720Z,95632.25
2022-12-26T05:57:05.927Z,95630.16
2022-12-26T06:00:08.843Z,95636.78
2022-12-26T06:03:10.760Z,95630.41
2022-12-26T06:06:13.231Z,95628.59
2022-12-26T06:09:15.064Z,95635.94
2022-12-26T06:12:18.278Z,95638.13
2022-12-26T06:15:20.116Z,95651.38
2022-12-26T06:18:21.978Z,95650.19
2022-12-26T06:21:24.329Z,95656.09
2022-12-26T06:24:26.201Z,95659.59
2022-12-26T06:27:29.432Z,95656.28
2022-12-26T06:30:31.293Z,95656.16
2022-12-26T06:33:33.114Z,95654.78
2022-12-26T06:36:35.261Z,95658.13
2022-12-26T06:39:37.077Z,95663.22
2022-12-26T06:42:41.205Z,95666.28
2022-12-26T06:45:43.141Z,95665.84
2022-12-26T06:48:45.385Z,95662.97
2022-12-26T06:51:47.241Z,95666.38
2022-12-26T06:54:49.167Z,95664.88
2022-12-26T06:57:53.452Z,95678.28
2022-12-26T07:00:55.384Z,95678.91
2022-12-26T07:03:57.572Z,95671.16
2022-12-26T07:06:59.427Z,95673.91
2022-12-26T07:10:01.405Z,95687.63
2022-12-26T07:13:04.616Z,95681.28
2022-12-26T07:16:06.839Z,95688.41
2022-12-26T07:19:11.351Z,95695.84
2022-12-26T07:22:13.176Z,95697.16
2022-12-26T07:25:15.127Z,95691.69
2022-12-26T07:28:18.368Z,95695.94
2022-12-26T07:31:20.658Z,95700.84
2022-12-26T07:34:26.456Z,95689.53
2022-12-26T07:37:31.302Z,95696.13
2022-12-26T07:40:33.188Z,95699.75
2022-12-26T07:43:36.376Z,95702.38
2022-12-26T07:46:40.971Z,95699.41
2022-12-26T07:49:42.832Z,95698.13
2022-12-26T07:52:44.620Z,95703.47
2022-12-26T07:55:46.559Z,95709.94
2022-12-26T07:58:50.388Z,95712.69
2022-12-26T08:01:52.497Z,95707.50
2022-12-26T08:04:54.488Z,95705.78
2022-12-26T08:07:56.364Z,95705.84
2022-12-26T08:11:01.833Z,95707.03
2022-12-26T08:14:05.072Z,95708.47
2022-12-26T08:17:07.760Z,95702.97
2022-12-26T08:20:12.255Z,95712.56
2022-12-26T08:23:14.094Z,95705.47
2022-12-26T08:26:15.990Z,95713.91
2022-12-26T08:29:19.228Z,95709.00
2022-12-26T08:32:21.102Z,95713.44
2022-12-26T08:35:22.949Z,95712.97
2022-12-26T08:38:28.461Z,95711.59
2022-12-26T08:41:33.771Z,95707.09
2022-12-26T08:44:37.958Z,95713.94
2022-12-26T08:47:39.819Z,95718.72
2022-12-26T08:50:41.746Z,95709.78
2022-12-26T08:53:44.282Z,95712.09
2022-12-26T08:56:46.149Z,95713.16
2022-12-26T08:59:49.447Z,95715.13
2022-12-26T09:02:51.379Z,95705.97
2022-12-26T09:05:53.324Z,95713.72
2022-12-26T09:08:55.145Z,95721.25
2022-12-26T09:11:57.022Z,95722.50
2022-12-26T09:15:00.350Z,95729.22
2022-12-26T09:18:02.353Z,95722.81
2022-12-26T09:21:06.156Z,95728.81
2022-12-26T09:24:11.598Z,95715.34
2022-12-26T09:27:13.509Z,95715.38
2022-12-26T09:30:18.296Z,95722.78
2022-12-26T09:33:20.264Z,95721.19
2022-12-26T09:36:24.094Z,95726.97
2022-12-26T09:39:25.960Z,95712.34
2022-12-26T09:42:38.017Z,95714.75
2022-12-26T09:45:56.643Z,95716.00
2022-12-26T09:49:04.577Z,95709.34
2022-12-26T09:52:14.584Z,95701.31
2022-12-26T09:55:29.668Z,95707.88
2022-12-26T09:58:34.627Z,95698.19
2022-12-26T10:01:38.032Z,95697.03
2022-12-26T10:04:40.395Z,95689.00
2022-12-26T10:07:46.265Z,95698.94
2022-12-26T10:10:55.142Z,95692.44
2022-12-26T10:14:02.874Z,95693.63
2022-12-26T10:17:17.027Z,95683.63
2022-12-26T10:20:25.169Z,95686.41
2022-12-26T10:23:32.369Z,95684.84
2022-12-26T10:26:38.441Z,95678.31
2022-12-26T10:29:43.836Z,95680.28
2022-12-26T10:32:52.946Z,95675.72
2022-12-26T10:35:55.200Z,95675.47
2022-12-26T10:38:59.808Z,95669.66
2022-12-26T10:42:11.696Z,95669.72
2022-12-26T10:45:17.259Z,95667.81
2022-12-26T10:48:21.603Z,95662.03
2022-12-26T10:51:26.286Z,95664.38
2022-12-26T10:54:30.713Z,95661.72
2022-12-26T10:57:36.733Z,95662.78
2022-12-26T11:00:38.590Z,95667.81
2022-12-26T11:03:54.673Z,95656.53
2022-12-26T11:06:57.201Z,95652.63
2022-12-26T11:09:59.521Z,95646.78
2022-12-26T11:13:04.801Z,95647.16
2022-12-26T11:16:08.449Z,95639.03
2022-12-26T11:19:26.569Z,95639.47
2022-12-26T11:22:29.526Z,95637.59
2022-12-26T11:25:31.410Z,95638.34
2022-12-26T11:28:36.682Z,95637.22
2022-12-26T11:31:40.643Z,95634.91
2022-12-26T11:34:48.062Z,95632.97
2022-12-26T11:37:53.529Z,95630.66
2022-12-26T11:40:55.460Z,95621.41
2022-12-26T11:44:04.724Z,95617.28
2022-12-26T11:47:11.487Z,95618.09
2022-12-26T11:50:17.156Z,95612.31
2022-12-26T11:53:21.909Z,95601.94
2022-12-26T11:56:26.135Z,95596.53
2022-12-26T11:59:27.968Z,95610.88
2022-12-26T12:02:31.327Z,95607.75
2022-12-26T12:05:45.942Z,95607.00
2022-12-26T12:09:02.209Z,95605.44
2022-12-26T12:12:14.964Z,95604.66
2022-12-26T12:15:22.886Z,95608.94
2022-12-26T12:18:36.082Z,95596.94
2022-12-26T12:21:44.644Z,95606.22
2022-12-26T12:25:00.409Z,95612.03
2022-12-26T12:28:17.221Z,95599.28
2022-12-26T12:31:29.179Z,95600.03
2022-12-26T12:34:43.758Z,95584.19
2022-12-26T12:38:03.895Z,95579.19
2022-12-26T12:41:19.355Z,95565.25
2022-12-26T12:44:24.832Z,95572.97
2022-12-26T12:47:35.408Z,95567.19
2022-12-26T12:50:44.172Z,95558.69
2022-12-26T12:54:25.881Z,95565.25
2022-12-26T12:57:35.324Z,95571.44
2022-12-26T13:00:44.610Z,95567.53
2022-12-26T13:03:52.943Z,95567.16
2022-12-26T13:06:58.537Z,95560.59
2022-12-26T13:10:05.129Z,95558.28
2022-12-26T13:13:15.648Z,95559.41
2022-12-26T13:16:22.133Z,95556.69
2022-12-26T13:19:27.459Z,95556.69
2022-12-26T13:22:34.960Z,95560.56
2022-12-26T13:25:42.624Z,95559.03
2022-12-26T13:28:53.425Z,95567.13
2022-12-26T13:31:55.466Z,95584.13
2022-12-26T13:35:00.339Z,95588.78
2022-12-26T13:38:02.199Z,95594.53
2022-12-26T13:41:05.524Z,95599.22
2022-12-26T13:44:23.666Z,95615.81
2022-12-26T13:47:34.927Z,95624.75
2022-12-26T13:50:53.432Z,95637.94
2022-12-26T13:54:03.104Z,95648.78
2022-12-26T13:57:34.925Z,95646.47
2022-12-26T14:00:44.880Z,95658.06
2022-12-26T14:04:12.254Z,95661.91
2022-12-26T14:07:25.135Z,95675.81
2022-12-26T14:10:38.583Z,95681.56
2022-12-26T14:13:56.409Z,95719.00
2022-12-26T14:17:08.588Z,95728.53
2022-12-26T14:20:26.901Z,95723.72
2022-12-26T14:23:44.228Z,95735.13
2022-12-26T14:26:53.600Z,95757.91
2022-12-26T14:30:06.902Z,95728.00
2022-12-26T14:33:24.256Z,95718.63
2022-12-26T14:36:36.572Z,95742.41
2022-12-26T14:39:47.175Z,95753.47
2022-12-26T14:43:27.716Z,95766.03
2022-12-26T14:46:59.193Z,95760.19
2022-12-26T14:50:38.673Z,95758.53
2022-12-26T14:53:40.888Z,95759.53
2022-12-26T14:56:43.231Z,95772.94
2022-12-26T15:00:10.674Z,95783.25
2022-12-26T15:03:33.852Z,95791.97
2022-12-26T15:07:14.073Z,95780.31
2022-12-26T15:11:05.927Z,95790.97
2022-12-26T15:14:50.200Z,95785.09
2022-12-26T15:18:17.794Z,95795.84
2022-12-26T15:21:50.584Z,95797.56
2022-12-26T15:25:39.162Z,95793.16
2022-12-26T15:29:12.597Z,95791.22
2022-12-26T15:32:19.466Z,95805.78
2022-12-26T15:35:26.632Z,95804.50
2022-12-26T15:38:39.952Z,95799.06
2022-12-26T15:41:47.072Z,95811.41
2022-12-26T15:44:57.399Z,95810.41
2022-12-26T15:48:05.600Z,95813.94
2022-12-26T15:51:11.555Z,95830.94
2022-12-26T15:54:28.854Z,95838.28
2022-12-26T15:57:39.059Z,95857.50
2022-12-26T16:00:51.745Z,95844.44
2022-12-26T16:03:55.631Z,95864.38
2022-12-26T16:07:08.568Z,95855.81
2022-12-26T16:10:29.255Z,95856.56
2022-12-26T16:13:33.047Z,95853.06
2022-12-26T16:16:38.888Z,95850.03
2022-12-26T16:19:41.926Z,95859.84
2022-12-26T16:22:44.398Z,95874.72
2022-12-26T16:25:49.488Z,95869.16
2022-12-26T16:28:53.296Z,95870.66
2022-12-26T16:32:02.913Z,95870.72
2022-12-26T16:35:16.326Z,95870.72
2022-12-26T16:38:22.512Z,95862.00
2022-12-26T16:41:27.877Z,95860.78
2022-12-26T16:44:35.116Z,95846.56
2022-12-26T16:47:37.653Z,95851.50
2022-12-26T16:50:47.392Z,95859.66
2022-12-26T16:53:51.186Z,95866.59
2022-12-26T16:57:02.333Z,95867.44
2022-12-26T17:00:04.693Z,95862.41
2022-12-26T17:03:17.556Z,95862.06
2022-12-26T17:06:26.059Z,95859.72
2022-12-26T17:09:31.584Z,95849.78
2022-12-26T17:12:38.662Z,95853.91
2022-12-26T17:15:51.302Z,95856.69
2022-12-26T17:18:57.127Z,95856.38
2022-12-26T17:22:22.306Z,95852.91
2022-12-26T17:25:28.039Z,95858.34
2022-12-26T17:28:37.084Z,95850.31
2022-12-26T17:31:41.988Z,95849.97
2022-12-26T17:34:44.202Z,95850.03
2022-12-26T17:37:50.190Z,95860.38
2022-12-26T17:40:54.185Z,95849.19
2022-12-26T17:43:57.406Z,95844.56
2022-12-26T17:47:02.268Z,95849.56
2022-12-26T17:50:05.008Z,95830.56
2022-12-26T17:53:15.274Z,95821.25
2022-12-26T17:56:20.155Z,95814.72
2022-12-26T17:59:23.807Z,95816.72
2022-12-26T18:02:25.931Z,95812.63
2022-12-26T18:05:27.874Z,95821.97
2022-12-26T18:08:32.753Z,95811.06
2022-12-26T18:11:34.849Z,95809.19
2022-12-26T18:14:38.483Z,95803.09
2022-12-26T18:17:40.691Z,95803.25
2022-12-26T18:20:42.612Z,95809.94
2022-12-26T18:23:45.411Z,95815.53
2022-12-26T18:26:48.744Z,95820.81
2022-12-26T18:29:52.867Z,95823.16
2022-12-26T18:32:55.237Z,95827.38
2022-12-26T18:36:05.803Z,95836.69
2022-12-26T18:39:13.724Z,95853.91
2022-12-26T18:42:16.804Z,95827.56
2022-12-26T18:45:20.548Z,95845.50
2022-12-26T18:48:22.738Z,95856.88
2022-12-26T18:51:26.170Z,95848.97
2022-12-26T18:54:28.621Z,95847.69
2022-12-26T18:57:30.512Z,95858.03
2022-12-26T19:00:33.935Z,95838.47
2022-12-26T19:03:35.767Z,95819.66
2022-12-26T19:06:38.231Z,95829.50
2022-12-26T19:09:43.452Z,95839.75
2022-12-26T19:12:48.417Z,95841.31
2022-12-26T19:15:51.645Z,95850.59
2022-12-26T19:18:53.726Z,95848.31
2022-12-26T19:21:56.105Z,95852.38
2022-12-26T19:24:59.776Z,95831.13
2022-12-26T19:28:02.000Z,95811.22
2022-12-26T19:31:09.241Z,95790.56
2022-12-26T19:34:11.235Z,95824.03
2022-12-26T19:37:13.852Z,95813.94
2022-12-26T19:40:21.260Z,95812.47
2022-12-26T19:43:27.069Z,95814.50
2022-12-26T19:46:31.247Z,95804.41
2022-12-26T19:49:33.965Z,95803.16
2022-12-26T19:52:37.446Z,95817.03
2022-12-26T19:55:39.895Z,95812.97
2022-12-26T19:58:42.767Z,95793.97
2022-12-26T20:01:47.169Z,95797.59
2022-12-26T20:04:49.426Z,95811.66
2022-12-26T20:07:51.605Z,95815.78
2022-12-26T20:10:58.836Z,95824.19
2022-12-26T20:14:03.804Z,95832.56
2022-12-26T20:17:08.041Z,95821.16
2022-12-26T20:20:13.822Z,95826.25
2022-12-26T20:23:15.932Z,95831.28
2022-12-26T20:26:23.125Z,95840.31
2022-12-26T20:29:25.150Z,95834.25
2022-12-26T20:32:28.926Z,95841.63
2022-12-26T20:35:31.287Z,95842.19
2022-12-26T20:38:33.956Z,95839.25
2022-12-26T20:41:35.845Z,95827.94
2022-12-26T20:44:38.481Z,95821.38
2022-12-26T20:47:42.508Z,95824.00
2022-12-26T20:50:45.005Z,95810.19
2022-12-26T20:53:47.866Z,95826.13
2022-12-26T20:56:49.751Z,95837.63
2022-12-26T20:59:51.575Z,95841.88
2022-12-26T21:02:55.380Z,95823.78
2022-12-26T21:06:06.317Z,95817.19
2022-12-26T21:09:08.179Z,95816.91
2022-12-26T21:12:10.118Z,95822.41
2022-12-26T21:15:12.043Z,95833.53
2022-12-26T21:18:15.276Z,95826.66
2022-12-26T21:21:19.140Z,95823.63
2022-12-26T21:24:26.393Z,95807.47
2022-12-26T21:27:28.467Z,95796.00
2022-12-26T21:30:30.428Z,95795.75
2022-12-26T21:33:44.009Z,95800.72
2022-12-26T21:36:47.060Z,95793.19
2022-12-26T21:39:50.854Z,95799.06
2022-12-26T21:42:52.724Z,95803.72
2022-12-26T21:46:00.881Z,95788.38
2022-12-26T21:49:04.387Z,95784.19
2022-12-26T21:52:07.168Z,95786.94
2022-12-26T21:55:10.392Z,95790.06
2022-12-26T21:58:12.346Z,95786.59
2022-12-26T22:01:17.209Z,95786.22
2022-12-26T22:04:20.566Z,95789.34
2022-12-26T22:07:22.419Z,95789.19
2022-12-26T22:10:25.108Z,95795.81
2022-12-26T22:13:26.986Z,95793.16
2022-12-26T22:16:28.870Z,95788.56
2022-12-26T22:19:32.094Z,95804.28
2022-12-26T22:22:33.953Z,95808.81
2022-12-26T22:25:36.014Z,95814.97
2022-12-26T22:28:38.360Z,95845.13
2022-12-26T22:31:40.203Z,95868.56
2022-12-26T22:34:43.796Z,95884.22
2022-12-26T22:37:45.703Z,95881.47
2022-12-26T22:40:55.528Z,95903.75
2022-12-26T22:43:57.429Z,95885.34
2022-12-26T22:46:59.265Z,95895.34
2022-12-26T22:50:02.543Z,95916.13
2022-12-26T22:53:04.409Z,95906.94
2022-12-26T22:56:07.013Z,95914.88
2022-12-26T22:59:11.317Z,95918.06
2022-12-26T23:02:13.253Z,95956.84
2022-12-26T23:05:17.428Z,95934.06
2022-12-26T23:08:23.105Z,95933.63
2022-12-26T23:11:34.070Z,95932.88
2022-12-26T23:14:37.517Z,95943.19
2022-12-26T23:17:41.372Z,95950.41
2022-12-26T23:20:45.246Z,95935.94
2022-12-26T23:23:47.783Z,95947.22
2022-12-26T23:26:51.502Z,95952.19
2022-12-26T23:29:56.249Z,95947.41
2022-12-26T23:32:58.307Z,95947.94
2022-12-26T23:36:01.549Z,95952.78
2022-12-26T23:39:04.038Z,95952.53
2022-12-26T23:42:06.297Z,95939.34
2022-12-26T23:45:10.166Z,95935.97
2022-12-26T23:48:12.105Z,95924.78
2022-12-26T23:51:16.159Z,95928.88
2022-12-26T23:54:18.027Z,95945.41
2022-12-26T23:57:19.875Z,95943.59
